Time;durP1;ratioP1;P1;durP2;ratioP2;P2;SDS_P1;SDS_P2;PMS_P1;PMS_P2;Temp;Humidity;BMP_temperature;BMP_pressure;BME280_temperature;BME280_humidity;BME280_pressure;Samples;Min_cycle;Max_cycle;Signal;HPM_P1;HPM_P2
2022/11/03 00:02:24;;;;;;;;;;;14.50;99.90;;;;;;5114331;28;19919;-77
2022/11/03 00:04:49;;;;;;;;;;;14.50;99.90;;;;;;5114194;28;19908;-78
2022/11/03 00:07:21;;;;;;;;;;;14.50;99.90;;;;;;5113947;28;19947;-77
2022/11/03 00:09:47;;;;;;;;;;;14.50;99.90;;;;;;5113940;28;19908;-77
2022/11/03 00:12:13;;;;;;;;;;;14.50;99.90;;;;;;5113932;28;19953;-78
2022/11/03 00:14:38;;;;;;;;;;;14.50;99.90;;;;;;5113901;28;19987;-78
2022/11/03 00:17:04;;;;;;;;;;;14.50;99.90;;;;;;5114166;28;19956;-78
2022/11/03 00:19:29;;;;;;;;;;;14.50;99.90;;;;;;5113837;28;20279;-77
2022/11/03 00:21:57;;;;;;;;;;;14.50;99.90;;;;;;5114136;28;19915;-79
2022/11/03 00:24:22;;;;;;;;;;;14.50;99.90;;;;;;5113805;28;19908;-77
2022/11/03 00:26:48;;;;;;;;;;;14.50;99.90;;;;;;5113724;28;20300;-76
2022/11/03 00:29:14;;;;;;;;;;;14.50;99.90;;;;;;5114086;28;20325;-74
2022/11/03 00:31:40;;;;;;;;;;;14.50;99.90;;;;;;5113730;28;19908;-78
2022/11/03 00:34:06;;;;;;;;;;;14.50;99.90;;;;;;5113734;28;20006;-76
2022/11/03 00:36:35;;;;;;;;;;;14.50;99.90;;;;;;5114251;28;19954;-76
2022/11/03 00:39:02;;;;;;;;;;;14.50;99.90;;;;;;5113919;28;20319;-77
2022/11/03 00:41:27;;;;;;;;;;;14.50;99.90;;;;;;5113964;28;19914;-77
2022/11/03 00:43:53;;;;;;;;;;;14.50;99.90;;;;;;5113608;28;19912;-76
2022/11/03 00:46:20;;;;;;;;;;;14.50;99.90;;;;;;5113555;28;19918;-76
2022/11/03 00:48:46;;;;;;;;;;;14.50;99.90;;;;;;5098997;28;19957;-77
2022/11/03 00:51:12;;;;;;;;;;;14.50;99.90;;;;;;5117353;28;19912;-79
2022/11/03 00:53:44;;;;;;;;;;;14.50;99.90;;;;;;5117328;28;19908;-78
2022/11/03 00:56:12;;;;;;;;;;;14.50;99.90;;;;;;5117269;28;19908;-77
2022/11/03 00:58:38;;;;;;;;;;;14.50;99.90;;;;;;5117482;28;19908;-77
2022/11/03 01:01:09;;;;;;;;;;;14.40;99.90;;;;;;5117400;28;19930;-78
2022/11/03 01:03:35;;;;;;;;;;;14.40;99.90;;;;;;5118172;28;19955;-78
2022/11/03 01:08:45;;;;;;;;;;;14.40;99.90;;;;;;5117076;28;20015;-76
2022/11/03 01:13:57;;;;;;;;;;;14.50;99.90;;;;;;5117514;28;19914;-79
2022/11/03 01:16:22;;;;;;;;;;;14.50;99.90;;;;;;5116864;28;19911;-76
2022/11/03 01:18:48;;;;;;;;;;;14.50;99.90;;;;;;5117113;28;20058;-76
2022/11/03 01:21:13;;;;;;;;;;;14.40;99.90;;;;;;5116780;28;19907;-77
2022/11/03 01:23:39;;;;;;;;;;;14.40;99.90;;;;;;5116752;28;19908;-77
2022/11/03 01:26:06;;;;;;;;;;;14.40;99.90;;;;;;5116625;28;19911;-76
2022/11/03 01:28:35;;;;;;;;;;;14.40;99.90;;;;;;5116644;28;20394;-76
2022/11/03 01:31:08;;;;;;;;;;;14.40;99.90;;;;;;5117122;28;19908;-76
2022/11/03 01:33:33;;;;;;;;;;;14.40;99.90;;;;;;5116539;28;20036;-77
2022/11/03 01:35:59;;;;;;;;;;;14.40;99.90;;;;;;5116779;28;19973;-77
2022/11/03 01:38:25;;;;;;;;;;;14.40;99.90;;;;;;5116418;28;19957;-77
2022/11/03 01:40:50;;;;;;;;;;;14.40;99.90;;;;;;5116389;28;19907;-77
2022/11/03 01:43:20;;;;;;;;;;;14.30;99.90;;;;;;5116920;28;20356;-76
2022/11/03 01:45:47;;;;;;;;;;;14.30;99.90;;;;;;5116229;28;20435;-77
2022/11/03 01:48:13;;;;;;;;;;;14.30;99.90;;;;;;5116242;28;19908;-78
2022/11/03 01:50:40;;;;;;;;;;;14.30;99.90;;;;;;5116753;28;20006;-77
2022/11/03 01:53:06;;;;;;;;;;;14.30;99.90;;;;;;5116175;28;19912;-76
2022/11/03 01:55:35;;;;;;;;;;;14.30;99.90;;;;;;5116380;28;19956;-75
2022/11/03 01:58:02;;;;;;;;;;;14.30;99.90;;;;;;5115545;28;20426;-77
2022/11/03 02:00:28;;;;;;;;;;;14.30;99.90;;;;;;5115533;28;19907;-76
2022/11/03 02:02:54;;;;;;;;;;;14.30;99.90;;;;;;5116175;28;19924;-75
2022/11/03 02:05:20;;;;;;;;;;;14.30;99.90;;;;;;5115827;28;19912;-75
2022/11/03 02:07:49;;;;;;;;;;;14.40;99.90;;;;;;5115873;28;19908;-76
2022/11/03 02:10:14;;;;;;;;;;;14.40;99.90;;;;;;5116091;28;20279;-76
2022/11/03 02:12:41;;;;;;;;;;;14.30;99.90;;;;;;5115752;28;19914;-75
2022/11/03 02:15:10;;;;;;;;;;;14.30;99.90;;;;;;5116007;28;20352;-77
2022/11/03 02:17:36;;;;;;;;;;;14.30;99.90;;;;;;5115943;28;19908;-76
2022/11/03 02:20:11;;;;;;;;;;;14.40;99.90;;;;;;5115904;28;19912;-76
2022/11/03 02:22:45;;;;;;;;;;;14.40;99.90;;;;;;5115502;28;19908;-77
2022/11/03 02:25:14;;;;;;;;;;;14.40;99.90;;;;;;5116084;28;19912;-77
2022/11/03 02:27:40;;;;;;;;;;;14.40;99.90;;;;;;5115377;28;20368;-76
2022/11/03 02:30:06;;;;;;;;;;;14.40;99.90;;;;;;5115414;28;19914;-77
2022/11/03 02:32:40;;;;;;;;;;;14.40;99.90;;;;;;5115286;28;19912;-76
2022/11/03 02:35:35;;;;;;;;;;;14.40;99.90;;;;;;5115913;28;19915;-78
2022/11/03 02:38:02;;;;;;;;;;;14.40;99.90;;;;;;5093251;28;19908;-77
2022/11/03 02:40:33;;;;;;;;;;;14.40;99.90;;;;;;5115178;28;19908;-76
2022/11/03 02:42:59;;;;;;;;;;;14.40;99.90;;;;;;5115130;28;19957;-76
2022/11/03 02:45:25;;;;;;;;;;;14.40;99.90;;;;;;5115026;28;20002;-76
2022/11/03 02:47:53;;;;;;;;;;;14.40;99.90;;;;;;5115105;28;19908;-77
2022/11/03 02:50:20;;;;;;;;;;;14.40;99.90;;;;;;5115303;28;19915;-76
2022/11/03 02:52:46;;;;;;;;;;;14.40;99.90;;;;;;5096711;28;19908;-76
2022/11/03 02:55:12;;;;;;;;;;;14.40;99.90;;;;;;5114923;28;19912;-76
2022/11/03 02:57:59;;;;;;;;;;;14.40;99.90;;;;;;5114938;28;19915;-75
2022/11/03 03:00:25;;;;;;;;;;;14.40;99.90;;;;;;5115161;28;19908;-76
2022/11/03 03:03:11;;;;;;;;;;;14.40;99.90;;;;;;5115666;28;19919;-76
2022/11/03 03:05:39;;;;;;;;;;;14.40;99.90;;;;;;5115908;28;19933;-77
2022/11/03 03:08:06;;;;;;;;;;;14.30;99.90;;;;;;5115250;28;19908;-78
2022/11/03 03:10:42;;;;;;;;;;;14.30;99.90;;;;;;5114629;28;19988;-78
2022/11/03 03:13:09;;;;;;;;;;;14.40;99.90;;;;;;5115029;28;19907;-78
2022/11/03 03:15:39;;;;;;;;;;;14.40;99.90;;;;;;5114581;28;19908;-76
2022/11/03 03:18:11;;;;;;;;;;;14.40;99.90;;;;;;5114891;28;19915;-77
2022/11/03 03:20:40;;;;;;;;;;;14.40;99.90;;;;;;5114507;28;20368;-78
2022/11/03 03:23:12;;;;;;;;;;;14.40;99.90;;;;;;5114693;28;19907;-76
2022/11/03 03:25:42;;;;;;;;;;;14.40;99.90;;;;;;5114418;28;19912;-77
2022/11/03 03:28:16;;;;;;;;;;;14.40;99.90;;;;;;5114718;28;19915;-77
2022/11/03 03:30:42;;;;;;;;;;;14.40;99.90;;;;;;5114688;28;19919;-77
2022/11/03 03:33:08;;;;;;;;;;;14.40;99.90;;;;;;5114387;28;19908;-76
2022/11/03 03:35:36;;;;;;;;;;;14.40;99.90;;;;;;5114279;28;19948;-76
2022/11/03 03:38:07;;;;;;;;;;;14.40;99.90;;;;;;5114835;28;19912;-77
2022/11/03 03:40:35;;;;;;;;;;;14.50;99.90;;;;;;5114231;28;19908;-76
2022/11/03 03:43:01;;;;;;;;;;;14.40;99.90;;;;;;5114223;28;19958;-76
2022/11/03 03:45:29;;;;;;;;;;;14.50;99.90;;;;;;5114157;28;19919;-77
2022/11/03 03:47:56;;;;;;;;;;;14.50;99.90;;;;;;5114204;28;19955;-77
2022/11/03 03:50:22;;;;;;;;;;;14.40;99.90;;;;;;5114734;28;19912;-77
2022/11/03 03:52:48;;;;;;;;;;;14.50;99.90;;;;;;5114143;28;20383;-77
2022/11/03 03:55:16;;;;;;;;;;;14.50;99.90;;;;;;5095937;28;19908;-77
2022/11/03 03:57:42;;;;;;;;;;;14.50;99.90;;;;;;5114328;28;19907;-76
2022/11/03 04:00:08;;;;;;;;;;;14.40;99.90;;;;;;5114301;28;20402;-75
2022/11/03 04:02:33;;;;;;;;;;;14.40;99.90;;;;;;5113825;28;20495;-78
2022/11/03 04:04:59;;;;;;;;;;;14.40;99.90;;;;;;5114486;28;19908;-76
2022/11/03 04:10:08;;;;;;;;;;;14.40;99.90;;;;;;5114055;28;20049;-78
2022/11/03 04:23:30;;;;;;;;;;;14.40;99.90;;;;;;5117375;28;19915;-78
2022/11/03 04:25:56;;;;;;;;;;;14.40;99.90;;;;;;5117812;28;19915;-77
2022/11/03 04:28:23;;;;;;;;;;;14.40;99.90;;;;;;5118052;28;19962;-78
2022/11/03 04:30:48;;;;;;;;;;;14.40;99.90;;;;;;5117792;28;20380;-78
2022/11/03 04:33:15;;;;;;;;;;;14.40;99.90;;;;;;5117690;28;19955;-76
2022/11/03 04:35:44;;;;;;;;;;;14.40;99.90;;;;;;5117908;28;19914;-77
2022/11/03 04:38:13;;;;;;;;;;;14.40;99.90;;;;;;5117636;28;20294;-77
2022/11/03 04:40:40;;;;;;;;;;;14.40;99.90;;;;;;5118191;28;19908;-75
2022/11/03 04:43:16;;;;;;;;;;;14.30;99.90;;;;;;5117546;28;19907;-77
2022/11/03 04:45:43;;;;;;;;;;;14.30;99.90;;;;;;5117689;28;19916;-77
2022/11/03 04:48:11;;;;;;;;;;;14.30;99.90;;;;;;5117438;28;20370;-76
2022/11/03 04:50:37;;;;;;;;;;;14.30;99.90;;;;;;5117384;28;19951;-78
2022/11/03 04:53:07;;;;;;;;;;;14.20;99.90;;;;;;5117410;28;19911;-77
2022/11/03 04:55:32;;;;;;;;;;;14.20;99.90;;;;;;5117584;28;19912;-76
2022/11/03 04:58:01;;;;;;;;;;;14.20;99.90;;;;;;5117542;28;19915;-77
2022/11/03 05:00:26;;;;;;;;;;;14.20;99.90;;;;;;5117180;28;19912;-78
2022/11/03 05:02:52;;;;;;;;;;;14.10;99.90;;;;;;5098673;28;19942;-76
2022/11/03 05:05:19;;;;;;;;;;;14.10;99.90;;;;;;5117584;28;20003;-77
2022/11/03 05:07:46;;;;;;;;;;;14.10;99.90;;;;;;5117618;28;19956;-77
2022/11/03 05:10:14;;;;;;;;;;;14.00;99.90;;;;;;5116912;28;20479;-78
2022/11/03 05:12:40;;;;;;;;;;;14.00;99.90;;;;;;5117678;28;19907;-77
2022/11/03 05:15:10;;;;;;;;;;;14.00;99.90;;;;;;5116784;28;19915;-78
2022/11/03 05:17:36;;;;;;;;;;;14.00;99.90;;;;;;5117288;28;19908;-76
2022/11/03 05:20:02;;;;;;;;;;;14.00;99.90;;;;;;5117054;28;19998;-76
2022/11/03 05:22:29;;;;;;;;;;;14.00;99.90;;;;;;5116808;28;20256;-77
2022/11/03 05:24:56;;;;;;;;;;;14.00;99.90;;;;;;5116557;28;20006;-76
2022/11/03 05:27:22;;;;;;;;;;;14.00;99.90;;;;;;5116624;28;19912;-76
2022/11/03 05:29:49;;;;;;;;;;;14.00;99.90;;;;;;5116564;28;19957;-76
2022/11/03 05:32:17;;;;;;;;;;;14.00;99.90;;;;;;5117050;28;19908;-77
2022/11/03 05:34:45;;;;;;;;;;;13.90;99.90;;;;;;5116387;28;19914;-76
2022/11/03 05:37:18;;;;;;;;;;;13.90;99.90;;;;;;5116433;28;19911;-77
2022/11/03 05:39:45;;;;;;;;;;;13.90;99.90;;;;;;5116693;28;20434;-77
2022/11/03 05:42:20;;;;;;;;;;;13.90;99.90;;;;;;5116292;28;20006;-77
2022/11/03 05:44:45;;;;;;;;;;;13.90;99.90;;;;;;5116567;28;19908;-76
2022/11/03 05:47:20;;;;;;;;;;;13.90;99.90;;;;;;5116123;28;19912;-77
2022/11/03 05:49:46;;;;;;;;;;;13.90;99.90;;;;;;5116159;28;19908;-76
2022/11/03 05:52:25;;;;;;;;;;;13.90;99.90;;;;;;5116651;28;19973;-77
2022/11/03 05:54:51;;;;;;;;;;;13.90;99.90;;;;;;5115946;28;20356;-76
2022/11/03 05:57:17;;;;;;;;;;;14.00;99.90;;;;;;5116610;28;20465;-77
2022/11/03 05:59:44;;;;;;;;;;;13.90;99.90;;;;;;5115960;28;19955;-77
2022/11/03 06:02:32;;;;;;;;;;;14.00;99.90;;;;;;5115700;28;19920;-77
2022/11/03 06:04:58;;;;;;;;;;;14.00;99.90;;;;;;5116578;28;19912;-76
2022/11/03 06:07:25;;;;;;;;;;;14.00;99.90;;;;;;5115815;28;19908;-76
2022/11/03 06:09:53;;;;;;;;;;;13.90;99.90;;;;;;5115799;28;19915;-77
2022/11/03 06:12:20;;;;;;;;;;;13.90;99.90;;;;;;5115738;28;19908;-76
2022/11/03 06:14:45;;;;;;;;;;;13.90;99.90;;;;;;5115673;28;19994;-75
2022/11/03 06:17:18;;;;;;;;;;;13.90;99.90;;;;;;5115653;28;20005;-76
2022/11/03 06:19:46;;;;;;;;;;;13.90;99.90;;;;;;5115911;28;19907;-75
2022/11/03 06:22:18;;;;;;;;;;;13.90;99.90;;;;;;5115648;28;19912;-77
2022/11/03 06:24:44;;;;;;;;;;;13.90;99.90;;;;;;5115474;28;19912;-76
2022/11/03 06:27:19;;;;;;;;;;;13.90;99.90;;;;;;5115586;28;20382;-78
2022/11/03 06:29:50;;;;;;;;;;;13.90;99.90;;;;;;5115358;28;19916;-76
2022/11/03 06:32:16;;;;;;;;;;;13.90;99.90;;;;;;5115603;28;19908;-77
2022/11/03 06:34:42;;;;;;;;;;;13.90;99.90;;;;;;5115219;28;19911;-77
2022/11/03 06:37:43;;;;;;;;;;;13.80;99.90;;;;;;5115240;28;19977;-77
2022/11/03 06:40:08;;;;;;;;;;;13.90;99.90;;;;;;5012866;28;19910;-76
2022/11/03 06:42:34;;;;;;;;;;;13.90;99.90;;;;;;5093677;28;20003;-77
2022/11/03 06:45:01;;;;;;;;;;;13.80;99.90;;;;;;5114807;28;19915;-77
2022/11/03 06:47:27;;;;;;;;;;;13.80;99.90;;;;;;5115288;28;20320;-76
2022/11/03 06:49:54;;;;;;;;;;;13.80;99.90;;;;;;5115542;28;19908;-76
2022/11/03 06:52:22;;;;;;;;;;;13.80;99.90;;;;;;5114795;28;20291;-78
2022/11/03 06:55:06;;;;;;;;;;;13.70;99.90;;;;;;5114864;28;20002;-76
2022/11/03 06:57:37;;;;;;;;;;;13.70;99.90;;;;;;5114865;28;19960;-75
2022/11/03 07:00:14;;;;;;;;;;;13.80;99.90;;;;;;5114599;28;19983;-78
2022/11/03 07:02:54;;;;;;;;;;;13.80;99.90;;;;;;5114263;28;19920;-76
2022/11/03 07:05:24;;;;;;;;;;;13.70;99.90;;;;;;5115745;28;19916;-77
2022/11/03 07:07:52;;;;;;;;;;;13.80;99.90;;;;;;5114955;28;19908;-76
2022/11/03 07:10:17;;;;;;;;;;;13.70;99.90;;;;;;5114903;28;19943;-76
2022/11/03 07:12:43;;;;;;;;;;;13.70;99.90;;;;;;5114598;28;20291;-76
2022/11/03 07:15:19;;;;;;;;;;;13.80;99.90;;;;;;5115105;28;20355;-76
2022/11/03 07:17:44;;;;;;;;;;;13.80;99.90;;;;;;5114760;28;19912;-76
2022/11/03 07:20:15;;;;;;;;;;;13.80;99.90;;;;;;5114455;28;19915;-76
2022/11/03 07:22:40;;;;;;;;;;;13.80;99.90;;;;;;5114381;28;19914;-76
2022/11/03 07:25:09;;;;;;;;;;;13.80;99.90;;;;;;5114867;28;19907;-77
2022/11/03 07:27:36;;;;;;;;;;;13.90;99.90;;;;;;5114334;28;19911;-76
2022/11/03 07:30:19;;;;;;;;;;;13.90;99.90;;;;;;5114859;28;20479;-76
2022/11/03 07:32:44;;;;;;;;;;;13.90;99.90;;;;;;5114249;28;19912;-76
2022/11/03 07:35:16;;;;;;;;;;;13.90;99.90;;;;;;5114812;28;19914;-75
2022/11/03 07:37:42;;;;;;;;;;;13.90;99.90;;;;;;5114209;28;20371;-77
2022/11/03 07:40:28;;;;;;;;;;;13.90;99.90;;;;;;5114183;28;19908;-76
2022/11/03 07:42:58;;;;;;;;;;;13.90;99.90;;;;;;5113600;28;19908;-76
2022/11/03 07:45:32;;;;;;;;;;;13.80;99.90;;;;;;5114029;28;19916;-76
2022/11/03 07:47:58;;;;;;;;;;;13.70;99.90;;;;;;5114106;28;19908;-76
2022/11/03 07:50:23;;;;;;;;;;;13.60;99.90;;;;;;5114106;28;19907;-76
2022/11/03 07:52:49;;;;;;;;;;;13.40;99.90;;;;;;5114083;28;20341;-76
2022/11/03 07:55:14;;;;;;;;;;;13.20;99.90;;;;;;5114298;28;20379;-76
2022/11/03 07:57:40;;;;;;;;;;;12.90;99.90;;;;;;5116292;28;20011;-77
2022/11/03 08:00:10;;;;;;;;;;;12.80;99.90;;;;;;5118592;28;20283;-76
2022/11/03 08:02:41;;;;;;;;;;;12.70;99.90;;;;;;5118198;28;20261;-76
2022/11/03 08:05:07;;;;;;;;;;;12.70;99.90;;;;;;5119457;28;19908;-76
2022/11/03 08:07:32;;;;;;;;;;;12.60;99.90;;;;;;5118406;28;19911;-75
2022/11/03 08:09:58;;;;;;;;;;;12.60;99.90;;;;;;5118701;28;19930;-75
2022/11/03 08:12:23;;;;;;;;;;;12.60;99.90;;;;;;5118036;28;19911;-76
2022/11/03 08:14:49;;;;;;;;;;;12.60;99.90;;;;;;5119150;28;19908;-77
2022/11/03 08:17:14;;;;;;;;;;;12.50;99.90;;;;;;5119781;28;19907;-76
2022/11/03 08:19:40;;;;;;;;;;;12.50;99.90;;;;;;5119704;28;20317;-76
2022/11/03 08:22:06;;;;;;;;;;;12.50;99.90;;;;;;5118258;28;19908;-76
2022/11/03 08:24:31;;;;;;;;;;;12.50;99.90;;;;;;5117812;28;19912;-76
2022/11/03 08:26:57;;;;;;;;;;;12.50;99.90;;;;;;5118013;28;19912;-77
2022/11/03 08:29:25;;;;;;;;;;;12.60;99.90;;;;;;5117735;28;19908;-77
2022/11/03 08:31:51;;;;;;;;;;;12.50;99.90;;;;;;5117918;28;20428;-76
2022/11/03 08:34:17;;;;;;;;;;;12.60;99.90;;;;;;5117926;28;19911;-78
2022/11/03 08:36:42;;;;;;;;;;;12.60;99.90;;;;;;5117648;28;19908;-78
2022/11/03 08:39:08;;;;;;;;;;;12.70;99.90;;;;;;5117636;28;19908;-77
2022/11/03 08:41:34;;;;;;;;;;;12.60;99.90;;;;;;5117818;28;19907;-76
2022/11/03 08:44:00;;;;;;;;;;;12.70;99.90;;;;;;5117467;28;20321;-77
2022/11/03 08:46:25;;;;;;;;;;;12.60;99.90;;;;;;5117586;28;19911;-76
2022/11/03 08:48:51;;;;;;;;;;;12.60;99.90;;;;;;5117614;28;19943;-76
2022/11/03 08:51:16;;;;;;;;;;;12.60;99.90;;;;;;5117329;28;19907;-76
2022/11/03 08:53:42;;;;;;;;;;;12.50;99.90;;;;;;5117816;28;20375;-79
2022/11/03 08:56:07;;;;;;;;;;;12.40;99.90;;;;;;5117206;28;19908;-75
2022/11/03 08:58:33;;;;;;;;;;;12.40;99.90;;;;;;5117246;28;20359;-77
2022/11/03 09:00:58;;;;;;;;;;;12.40;99.90;;;;;;5098880;28;20324;-77
2022/11/03 09:03:24;;;;;;;;;;;12.40;99.90;;;;;;5116920;28;20372;-77
2022/11/03 09:05:49;;;;;;;;;;;12.40;99.90;;;;;;5118057;28;19922;-77
2022/11/03 09:08:15;;;;;;;;;;;12.50;99.90;;;;;;5116601;28;19907;-78
2022/11/03 09:10:41;;;;;;;;;;;12.50;99.90;;;;;;5117444;28;20049;-77
2022/11/03 09:13:06;;;;;;;;;;;12.60;99.90;;;;;;5117182;28;19912;-77
2022/11/03 09:15:32;;;;;;;;;;;12.60;99.90;;;;;;5117410;28;19912;-77
2022/11/03 09:17:58;;;;;;;;;;;12.70;99.90;;;;;;5116819;28;19908;-76
2022/11/03 09:20:23;;;;;;;;;;;12.60;99.90;;;;;;5116836;28;19943;-77
2022/11/03 09:22:49;;;;;;;;;;;12.70;99.90;;;;;;5116357;28;20002;-76
2022/11/03 09:25:14;;;;;;;;;;;12.60;99.90;;;;;;5117151;28;20002;-78
2022/11/03 09:27:40;;;;;;;;;;;12.60;99.90;;;;;;5116670;28;19908;-77
2022/11/03 09:30:06;;;;;;;;;;;12.60;99.90;;;;;;5116586;28;19908;-78
2022/11/03 09:32:32;;;;;;;;;;;12.60;99.90;;;;;;5117093;28;19908;-77
2022/11/03 09:34:57;;;;;;;;;;;12.60;99.90;;;;;;5116480;28;19907;-77
2022/11/03 09:37:23;;;;;;;;;;;12.60;99.90;;;;;;5116460;28;19908;-76
2022/11/03 09:39:48;;;;;;;;;;;12.60;99.90;;;;;;5116423;28;19915;-78
2022/11/03 09:42:14;;;;;;;;;;;12.60;99.90;;;;;;5116631;28;20362;-77
2022/11/03 09:44:40;;;;;;;;;;;12.60;99.90;;;;;;5116255;28;19907;-78
2022/11/03 09:47:05;;;;;;;;;;;12.60;99.90;;;;;;5116166;28;19911;-77
2022/11/03 09:49:31;;;;;;;;;;;12.60;99.90;;;;;;5116759;28;19915;-76
2022/11/03 09:51:58;;;;;;;;;;;12.60;99.90;;;;;;5116125;28;20430;-78
2022/11/03 09:54:23;;;;;;;;;;;12.60;99.90;;;;;;5116090;28;19908;-78
2022/11/03 09:56:49;;;;;;;;;;;12.70;99.90;;;;;;5115999;28;19945;-77
2022/11/03 09:59:16;;;;;;;;;;;12.70;99.90;;;;;;5116551;28;19907;-75
2022/11/03 10:01:44;;;;;;;;;;;12.70;99.90;;;;;;5115736;28;19972;-77
2022/11/03 10:04:11;;;;;;;;;;;12.70;99.90;;;;;;5116770;28;19972;-78
2022/11/03 10:06:37;;;;;;;;;;;12.70;99.90;;;;;;5115755;28;19918;-76
2022/11/03 10:09:02;;;;;;;;;;;12.70;99.90;;;;;;5116409;28;20006;-76
2022/11/03 10:11:28;;;;;;;;;;;12.70;99.90;;;;;;5116035;28;19915;-76
2022/11/03 10:13:55;;;;;;;;;;;12.80;99.90;;;;;;5115731;28;19908;-77
2022/11/03 10:16:21;;;;;;;;;;;12.90;99.90;;;;;;5115932;28;20352;-78
2022/11/03 10:18:47;;;;;;;;;;;13.00;99.90;;;;;;5115825;28;20052;-78
2022/11/03 10:21:22;;;;;;;;;;;13.00;99.90;;;;;;5115235;28;19953;-76
2022/11/03 10:23:49;;;;;;;;;;;13.00;99.90;;;;;;5115485;28;19911;-77
2022/11/03 10:26:17;;;;;;;;;;;13.10;99.90;;;;;;5097092;28;19919;-77
2022/11/03 10:28:59;;;;;;;;;;;13.10;99.90;;;;;;5115413;28;19925;-77
2022/11/03 10:31:30;;;;;;;;;;;13.10;99.90;;;;;;5115371;28;19908;-77
2022/11/03 10:33:56;;;;;;;;;;;13.10;99.90;;;;;;5115669;28;19915;-77
2022/11/03 10:36:25;;;;;;;;;;;13.10;99.90;;;;;;5115298;28;19915;-77
2022/11/03 10:38:51;;;;;;;;;;;13.10;99.90;;;;;;5115552;28;20461;-76
2022/11/03 10:41:20;;;;;;;;;;;13.10;99.90;;;;;;5115191;28;19919;-77
2022/11/03 10:43:59;;;;;;;;;;;13.10;99.90;;;;;;5115699;28;20359;-78
2022/11/03 10:46:25;;;;;;;;;;;13.00;99.90;;;;;;5115000;28;19911;-77
2022/11/03 10:49:01;;;;;;;;;;;13.00;99.90;;;;;;5115057;28;19915;-76
2022/11/03 10:51:27;;;;;;;;;;;13.00;99.90;;;;;;5115221;28;19998;-77
2022/11/03 10:53:53;;;;;;;;;;;13.10;99.90;;;;;;5114913;28;19973;-76
2022/11/03 10:56:19;;;;;;;;;;;13.10;99.90;;;;;;5114878;28;20376;-76
2022/11/03 10:58:44;;;;;;;;;;;13.10;99.90;;;;;;5115402;28;20006;-77
2022/11/03 11:01:10;;;;;;;;;;;13.10;99.90;;;;;;5096435;28;19955;-77
2022/11/03 11:03:39;;;;;;;;;;;13.20;99.90;;;;;;5114387;28;19947;-77
2022/11/03 11:06:05;;;;;;;;;;;13.20;99.90;;;;;;5115421;28;19965;-78
2022/11/03 11:08:30;;;;;;;;;;;13.10;99.90;;;;;;5114960;28;19908;-76
2022/11/03 11:11:04;;;;;;;;;;;13.20;99.90;;;;;;5113878;28;21337;-77
2022/11/03 11:13:30;;;;;;;;;;;13.20;99.90;;;;;;5114912;28;19915;-75
2022/11/03 11:15:56;;;;;;;;;;;13.40;99.90;;;;;;5114603;28;19907;-77
2022/11/03 11:18:28;;;;;;;;;;;13.50;99.90;;;;;;5114541;28;19908;-77
2022/11/03 11:20:54;;;;;;;;;;;13.60;99.90;;;;;;5114518;28;19912;-75
2022/11/03 11:23:25;;;;;;;;;;;13.70;99.90;;;;;;5114400;28;19915;-76
2022/11/03 11:26:09;;;;;;;;;;;13.90;99.90;;;;;;5114601;28;20007;-76
2022/11/03 11:28:36;;;;;;;;;;;13.90;99.90;;;;;;5114303;28;20352;-78
2022/11/03 11:31:21;;;;;;;;;;;13.90;99.90;;;;;;5114181;28;19908;-78
2022/11/03 11:33:47;;;;;;;;;;;14.00;99.90;;;;;;5114764;28;20368;-77
2022/11/03 11:36:23;;;;;;;;;;;14.00;99.90;;;;;;5114542;28;19919;-77
2022/11/03 11:38:54;;;;;;;;;;;14.00;99.90;;;;;;5114491;28;19970;-77
2022/11/03 11:41:19;;;;;;;;;;;14.10;99.90;;;;;;5114490;28;19955;-77
2022/11/03 11:43:45;;;;;;;;;;;14.10;99.90;;;;;;5114705;28;19931;-76
2022/11/03 11:46:31;;;;;;;;;;;14.20;99.90;;;;;;5114013;28;20391;-76
2022/11/03 11:49:03;;;;;;;;;;;14.20;99.90;;;;;;5114225;28;19915;-78
2022/11/03 11:51:32;;;;;;;;;;;14.10;99.90;;;;;;5114134;28;19912;-76
2022/11/03 11:53:57;;;;;;;;;;;14.00;99.90;;;;;;5114078;28;19908;-78
2022/11/03 11:56:23;;;;;;;;;;;14.00;99.90;;;;;;5113767;28;19908;-76
2022/11/03 11:58:50;;;;;;;;;;;14.10;99.90;;;;;;5113998;28;19908;-77
2022/11/03 12:01:18;;;;;;;;;;;14.20;99.90;;;;;;5114242;28;19915;-75
2022/11/03 12:03:45;;;;;;;;;;;14.30;99.90;;;;;;5113557;28;19958;-76
2022/11/03 12:06:12;;;;;;;;;;;14.30;99.90;;;;;;5114924;28;19959;-77
2022/11/03 12:08:37;;;;;;;;;;;14.30;99.90;;;;;;5113907;28;19908;-76
2022/11/03 12:11:04;;;;;;;;;;;14.40;99.90;;;;;;5113872;28;20276;-76
2022/11/03 12:13:50;;;;;;;;;;;14.50;99.90;;;;;;5095599;28;19908;-77
2022/11/03 12:16:33;;;;;;;;;;;14.60;99.90;;;;;;5114127;28;19914;-77
2022/11/03 12:19:17;;;;;;;;;;;14.60;99.90;;;;;;5113822;28;19915;-77
2022/11/03 12:21:46;;;;;;;;;;;14.60;99.90;;;;;;5113805;28;20055;-76
2022/11/03 12:24:24;;;;;;;;;;;14.70;99.90;;;;;;5113713;28;19907;-76
2022/11/03 12:26:50;;;;;;;;;;;14.90;99.90;;;;;;5113972;28;19912;-76
2022/11/03 12:29:15;;;;;;;;;;;15.00;99.90;;;;;;5113733;28;20359;-75
2022/11/03 12:31:41;;;;;;;;;;;15.00;99.90;;;;;;5113977;28;19908;-76
2022/11/03 12:34:06;;;;;;;;;;;15.00;99.90;;;;;;5113669;28;20372;-77
2022/11/03 12:36:32;;;;;;;;;;;15.00;99.90;;;;;;5113943;28;19915;-76
2022/11/03 12:38:57;;;;;;;;;;;15.00;99.90;;;;;;5113626;28;19914;-77
2022/11/03 12:41:23;;;;;;;;;;;14.90;99.90;;;;;;5113870;28;19911;-77
2022/11/03 12:43:49;;;;;;;;;;;14.90;99.90;;;;;;5115892;28;19915;-76
2022/11/03 12:46:16;;;;;;;;;;;14.90;99.90;;;;;;5117971;28;19916;-75
2022/11/03 12:48:42;;;;;;;;;;;14.90;99.90;;;;;;5117386;28;19950;-75
2022/11/03 12:51:21;;;;;;;;;;;14.90;99.90;;;;;;5117381;28;19908;-78
2022/11/03 12:53:47;;;;;;;;;;;14.90;99.90;;;;;;5117586;28;19915;-76
2022/11/03 12:56:13;;;;;;;;;;;14.90;99.90;;;;;;5117230;28;19911;-76
2022/11/03 12:58:39;;;;;;;;;;;14.90;99.90;;;;;;5117481;28;20383;-78
2022/11/03 13:01:05;;;;;;;;;;;14.90;99.90;;;;;;5117159;28;19907;-76
2022/11/03 13:03:31;;;;;;;;;;;14.90;99.90;;;;;;5116804;28;19920;-76
2022/11/03 13:05:57;;;;;;;;;;;14.90;99.90;;;;;;5117786;28;19915;-76
2022/11/03 13:08:23;;;;;;;;;;;15.00;99.90;;;;;;5117023;28;19918;-76
2022/11/03 13:10:49;;;;;;;;;;;15.00;99.90;;;;;;5117268;28;19908;-75
2022/11/03 13:13:15;;;;;;;;;;;15.10;99.90;;;;;;5116957;28;19969;-75
2022/11/03 13:15:40;;;;;;;;;;;15.20;99.90;;;;;;5116898;28;20379;-76
2022/11/03 13:18:06;;;;;;;;;;;15.30;99.90;;;;;;5116858;28;20006;-75
2022/11/03 13:20:32;;;;;;;;;;;15.40;99.90;;;;;;5116802;28;19960;-76
2022/11/03 13:22:57;;;;;;;;;;;15.40;99.90;;;;;;5116935;28;19908;-76
2022/11/03 13:25:23;;;;;;;;;;;15.30;99.90;;;;;;5116624;28;19959;-76
2022/11/03 13:27:52;;;;;;;;;;;15.20;99.90;;;;;;5116652;28;19908;-75
2022/11/03 13:30:18;;;;;;;;;;;15.10;99.90;;;;;;5116935;28;19990;-74
2022/11/03 13:32:44;;;;;;;;;;;14.80;99.90;;;;;;5117024;28;19911;-76
2022/11/03 13:35:09;;;;;;;;;;;14.70;99.90;;;;;;5117042;28;19915;-77
2022/11/03 13:37:35;;;;;;;;;;;14.70;99.90;;;;;;5117143;28;19907;-76
2022/11/03 13:40:00;;;;;;;;;;;14.60;99.90;;;;;;5116427;28;20380;-77
2022/11/03 13:42:26;;;;;;;;;;;14.60;99.90;;;;;;5116388;28;19951;-76
2022/11/03 13:44:51;;;;;;;;;;;14.60;99.90;;;;;;5116594;28;19998;-78
2022/11/03 13:47:17;;;;;;;;;;;14.40;99.90;;;;;;5116224;28;19911;-76
2022/11/03 13:49:43;;;;;;;;;;;14.50;99.90;;;;;;5116208;28;19912;-78
2022/11/03 13:52:08;;;;;;;;;;;14.50;99.90;;;;;;5116401;28;19915;-75
2022/11/03 13:54:34;;;;;;;;;;;14.70;99.90;;;;;;5114827;28;19991;-78
2022/11/03 13:56:59;;;;;;;;;;;14.70;99.90;;;;;;5116021;28;19907;-77
2022/11/03 13:59:26;;;;;;;;;;;14.70;99.90;;;;;;5115999;28;19908;-76
2022/11/03 14:01:51;;;;;;;;;;;14.70;99.90;;;;;;5116009;28;19908;-77
2022/11/03 14:04:17;;;;;;;;;;;14.70;99.90;;;;;;5116246;28;19911;-76
2022/11/03 14:06:42;;;;;;;;;;;14.70;99.90;;;;;;5116285;28;19923;-78
2022/11/03 14:09:08;;;;;;;;;;;14.70;99.90;;;;;;5116162;28;19908;-76
2022/11/03 14:14:17;;;;;;;;;;;14.70;99.90;;;;;;5115553;28;19952;-78
2022/11/03 14:16:43;;;;;;;;;;;14.80;99.90;;;;;;5116056;28;20006;-77
2022/11/03 14:19:08;;;;;;;;;;;14.70;99.90;;;;;;5115720;28;19992;-76
2022/11/03 14:21:36;;;;;;;;;;;14.70;99.90;;;;;;5115645;28;19908;-76
2022/11/03 14:24:02;;;;;;;;;;;14.70;99.90;;;;;;5115576;28;19907;-77
2022/11/03 14:26:28;;;;;;;;;;;14.70;99.90;;;;;;5115442;28;19951;-77
2022/11/03 14:28:55;;;;;;;;;;;14.70;99.90;;;;;;5115423;28;19908;-78
2022/11/03 14:31:20;;;;;;;;;;;14.70;99.90;;;;;;5116050;28;19908;-75
2022/11/03 14:33:46;;;;;;;;;;;14.80;99.90;;;;;;5115426;28;19914;-76
2022/11/03 14:36:11;;;;;;;;;;;14.80;99.90;;;;;;5115612;28;19947;-75
2022/11/03 14:38:37;;;;;;;;;;;14.70;99.90;;;;;;5115587;28;20313;-77
2022/11/03 14:43:47;;;;;;;;;;;14.70;99.90;;;;;;5114944;28;19914;-76
2022/11/03 14:46:12;;;;;;;;;;;14.70;99.90;;;;;;5115310;28;19915;-77